sensor_id;sensor_type;location;lat;lon;timestamp;temperature;humidity
55173;DHT22;41061;52.822;6.860;2023-04-01T00:00:55;10.30;99.90
55173;DHT22;41061;52.822;6.860;2023-04-01T00:03:22;10.30;99.90
55173;DHT22;41061;52.822;6.860;2023-04-01T00:05:48;10.30;99.90
55173;DHT22;41061;52.822;6.860;2023-04-01T00:08:14;10.30;99.90
55173;DHT22;41061;52.822;6.860;2023-04-01T00:10:40;10.30;99.90
55173;DHT22;41061;52.822;6.860;2023-04-01T00:13:06;10.20;99.90
55173;DHT22;41061;52.822;6.860;2023-04-01T00:15:32;10.30;99.90
55173;DHT22;41061;52.822;6.860;2023-04-01T00:17:58;10.30;99.90
55173;DHT22;41061;52.822;6.860;2023-04-01T00:20:24;10.30;99.90
55173;DHT22;41061;52.822;6.860;2023-04-01T00:22:50;10.30;99.90
55173;DHT22;41061;52.822;6.860;2023-04-01T00:25:15;10.20;99.90
55173;DHT22;41061;52.822;6.860;2023-04-01T00:27:41;10.20;99.90
55173;DHT22;41061;52.822;6.860;2023-04-01T00:30:08;10.20;99.90
55173;DHT22;41061;52.822;6.860;2023-04-01T00:32:34;10.20;99.90
55173;DHT22;41061;52.822;6.860;2023-04-01T00:35:00;10.20;99.90
55173;DHT22;41061;52.822;6.860;2023-04-01T00:37:27;10.20;99.90
55173;DHT22;41061;52.822;6.860;2023-04-01T00:39:53;10.20;99.90
55173;DHT22;41061;52.822;6.860;2023-04-01T00:42:19;10.20;99.90
55173;DHT22;41061;52.822;6.860;2023-04-01T00:44:50;10.20;99.90
55173;DHT22;41061;52.822;6.860;2023-04-01T00:47:16;10.20;99.90
55173;DHT22;41061;52.822;6.860;2023-04-01T00:49:45;10.20;99.90
55173;DHT22;41061;52.822;6.860;2023-04-01T00:52:14;10.20;99.90
55173;DHT22;41061;52.822;6.860;2023-04-01T00:54:44;10.20;99.90
55173;DHT22;41061;52.822;6.860;2023-04-01T00:57:15;10.20;99.90
55173;DHT22;41061;52.822;6.860;2023-04-01T00:59:46;10.20;99.90
55173;DHT22;41061;52.822;6.860;2023-04-01T01:02:14;10.20;99.90
55173;DHT22;41061;52.822;6.860;2023-04-01T01:04:40;10.20;99.90
55173;DHT22;41061;52.822;6.860;2023-04-01T01:17:45;10.10;99.90
55173;DHT22;41061;52.822;6.860;2023-04-01T01:23:03;10.10;99.90
55173;DHT22;41061;52.822;6.860;2023-04-01T01:31:23;10.10;99.90
55173;DHT22;41061;52.822;6.860;2023-04-01T01:36:37;10.10;99.90
55173;DHT22;41061;52.822;6.860;2023-04-01T01:39:06;10.10;99.90
55173;DHT22;41061;52.822;6.860;2023-04-01T01:41:34;10.10;99.90
55173;DHT22;41061;52.822;6.860;2023-04-01T01:44:03;10.10;99.90
55173;DHT22;41061;52.822;6.860;2023-04-01T01:46:31;10.10;99.90
55173;DHT22;41061;52.822;6.860;2023-04-01T01:48:57;10.10;99.90
55173;DHT22;41061;52.822;6.860;2023-04-01T01:51:27;10.10;99.90
55173;DHT22;41061;52.822;6.860;2023-04-01T01:53:53;10.10;99.90
55173;DHT22;41061;52.822;6.860;2023-04-01T01:56:22;10.10;99.90
55173;DHT22;41061;52.822;6.860;2023-04-01T01:58:56;10.10;99.90
55173;DHT22;41061;52.822;6.860;2023-04-01T02:01:25;10.10;99.90
55173;DHT22;41061;52.822;6.860;2023-04-01T02:03:53;10.10;99.90
55173;DHT22;41061;52.822;6.860;2023-04-01T02:06:22;10.10;99.90
55173;DHT22;41061;52.822;6.860;2023-04-01T02:08:53;10.10;99.90
55173;DHT22;41061;52.822;6.860;2023-04-01T02:11:26;10.10;99.90
55173;DHT22;41061;52.822;6.860;2023-04-01T02:13:59;10.10;99.90
55173;DHT22;41061;52.822;6.860;2023-04-01T02:16:28;10.10;99.90
55173;DHT22;41061;52.822;6.860;2023-04-01T02:18:58;10.10;99.90
55173;DHT22;41061;52.822;6.860;2023-04-01T02:21:30;10.10;99.90
55173;DHT22;41061;52.822;6.860;2023-04-01T02:23:58;10.10;99.90
55173;DHT22;41061;52.822;6.860;2023-04-01T02:26:26;10.10;99.90
55173;DHT22;41061;52.822;6.860;2023-04-01T02:28:54;10.10;99.90
55173;DHT22;41061;52.822;6.860;2023-04-01T02:31:21;10.10;99.90
55173;DHT22;41061;52.822;6.860;2023-04-01T02:33:49;10.10;99.90
55173;DHT22;41061;52.822;6.860;2023-04-01T02:36:16;10.10;99.90
55173;DHT22;41061;52.822;6.860;2023-04-01T02:38:44;10.00;99.90
55173;DHT22;41061;52.822;6.860;2023-04-01T02:41:11;10.10;99.90
55173;DHT22;41061;52.822;6.860;2023-04-01T02:43:37;10.10;99.90
55173;DHT22;41061;52.822;6.860;2023-04-01T02:46:03;10.10;99.90
55173;DHT22;41061;52.822;6.860;2023-04-01T02:48:29;10.10;99.90
55173;DHT22;41061;52.822;6.860;2023-04-01T02:50:55;10.00;99.90
55173;DHT22;41061;52.822;6.860;2023-04-01T02:53:21;10.10;99.90
55173;DHT22;41061;52.822;6.860;2023-04-01T02:55:47;10.00;99.90
55173;DHT22;41061;52.822;6.860;2023-04-01T02:58:16;10.10;99.90
55173;DHT22;41061;52.822;6.860;2023-04-01T03:00:41;10.00;99.90
55173;DHT22;41061;52.822;6.860;2023-04-01T03:03:07;10.00;99.90
55173;DHT22;41061;52.822;6.860;2023-04-01T03:05:33;10.00;99.90
55173;DHT22;41061;52.822;6.860;2023-04-01T03:07:59;10.00;99.90
55173;DHT22;41061;52.822;6.860;2023-04-01T03:10:25;10.00;99.90
55173;DHT22;41061;52.822;6.860;2023-04-01T03:12:50;10.00;99.90
55173;DHT22;41061;52.822;6.860;2023-04-01T03:15:16;10.00;99.90
55173;DHT22;41061;52.822;6.860;2023-04-01T03:17:42;10.10;99.90
55173;DHT22;41061;52.822;6.860;2023-04-01T03:20:09;10.00;99.90
55173;DHT22;41061;52.822;6.860;2023-04-01T03:22:36;10.10;99.90
55173;DHT22;41061;52.822;6.860;2023-04-01T03:25:03;10.00;99.90
55173;DHT22;41061;52.822;6.860;2023-04-01T03:27:29;10.00;99.90
55173;DHT22;41061;52.822;6.860;2023-04-01T03:29:55;10.00;99.90
55173;DHT22;41061;52.822;6.860;2023-04-01T03:32:23;10.00;99.90
55173;DHT22;41061;52.822;6.860;2023-04-01T03:34:49;10.00;99.90
55173;DHT22;41061;52.822;6.860;2023-04-01T03:37:15;10.00;99.90
55173;DHT22;41061;52.822;6.860;2023-04-01T03:39:41;10.00;99.90
55173;DHT22;41061;52.822;6.860;2023-04-01T03:42:06;10.00;99.90
55173;DHT22;41061;52.822;6.860;2023-04-01T03:44:35;10.00;99.90
55173;DHT22;41061;52.822;6.860;2023-04-01T03:47:01;10.00;99.90
55173;DHT22;41061;52.822;6.860;2023-04-01T03:49:27;10.00;99.90
55173;DHT22;41061;52.822;6.860;2023-04-01T03:51:52;10.00;99.90
55173;DHT22;41061;52.822;6.860;2023-04-01T03:54:18;10.00;99.90
55173;DHT22;41061;52.822;6.860;2023-04-01T03:56:46;10.00;99.90
55173;DHT22;41061;52.822;6.860;2023-04-01T03:59:12;10.00;99.90
55173;DHT22;41061;52.822;6.860;2023-04-01T04:01:38;10.00;99.90
55173;DHT22;41061;52.822;6.860;2023-04-01T04:04:04;10.00;99.90
55173;DHT22;41061;52.822;6.860;2023-04-01T04:06:30;10.00;99.90
55173;DHT22;41061;52.822;6.860;2023-04-01T04:08:55;10.00;99.90
55173;DHT22;41061;52.822;6.860;2023-04-01T04:11:22;10.00;99.90
55173;DHT22;41061;52.822;6.860;2023-04-01T04:13:48;10.00;99.90
55173;DHT22;41061;52.822;6.860;2023-04-01T04:16:15;10.00;99.90
55173;DHT22;41061;52.822;6.860;2023-04-01T04:18:41;10.00;99.90
55173;DHT22;41061;52.822;6.860;2023-04-01T04:21:06;10.00;99.90
55173;DHT22;41061;52.822;6.860;2023-04-01T04:23:33;10.00;99.90
55173;DHT22;41061;52.822;6.860;2023-04-01T04:26:04;10.00;99.90
55173;DHT22;41061;52.822;6.860;2023-04-01T04:28:31;10.00;99.90
55173;DHT22;41061;52.822;6.860;2023-04-01T04:30:57;10.00;99.90
55173;DHT22;41061;52.822;6.860;2023-04-01T04:33:23;10.00;99.90
55173;DHT22;41061;52.822;6.860;2023-04-01T04:35:49;10.00;99.90
55173;DHT22;41061;52.822;6.860;2023-04-01T04:38:15;10.00;99.90
55173;DHT22;41061;52.822;6.860;2023-04-01T04:40:42;10.00;99.90
55173;DHT22;41061;52.822;6.860;2023-04-01T04:43:11;10.00;99.90
55173;DHT22;41061;52.822;6.860;2023-04-01T04:45:37;10.00;99.90
55173;DHT22;41061;52.822;6.860;2023-04-01T04:48:03;10.00;99.90
55173;DHT22;41061;52.822;6.860;2023-04-01T04:50:29;10.00;99.90
55173;DHT22;41061;52.822;6.860;2023-04-01T04:52:55;10.00;99.90
55173;DHT22;41061;52.822;6.860;2023-04-01T04:55:21;10.00;99.90
55173;DHT22;41061;52.822;6.860;2023-04-01T04:57:47;10.00;99.90
55173;DHT22;41061;52.822;6.860;2023-04-01T05:00:12;10.00;99.90
55173;DHT22;41061;52.822;6.860;2023-04-01T05:02:38;10.00;99.90
55173;DHT22;41061;52.822;6.860;2023-04-01T05:05:04;10.00;99.90
55173;DHT22;41061;52.822;6.860;2023-04-01T05:07:30;10.00;99.90
55173;DHT22;41061;52.822;6.860;2023-04-01T05:09:56;10.00;99.90
55173;DHT22;41061;52.822;6.860;2023-04-01T05:12:22;10.00;99.90
55173;DHT22;41061;52.822;6.860;2023-04-01T05:14:47;10.00;99.90
55173;DHT22;41061;52.822;6.860;2023-04-01T05:17:13;10.00;99.90
55173;DHT22;41061;52.822;6.860;2023-04-01T05:19:40;10.00;99.90
55173;DHT22;41061;52.822;6.860;2023-04-01T05:22:06;10.00;99.90
55173;DHT22;41061;52.822;6.860;2023-04-01T05:24:32;10.00;99.90
55173;DHT22;41061;52.822;6.860;2023-04-01T05:26:58;10.00;99.90
55173;DHT22;41061;52.822;6.860;2023-04-01T05:29:25;10.00;99.90
55173;DHT22;41061;52.822;6.860;2023-04-01T05:31:52;10.00;99.90
55173;DHT22;41061;52.822;6.860;2023-04-01T05:34:17;10.00;99.90
55173;DHT22;41061;52.822;6.860;2023-04-01T05:36:44;10.00;99.90
55173;DHT22;41061;52.822;6.860;2023-04-01T05:39:12;10.00;99.90
55173;DHT22;41061;52.822;6.860;2023-04-01T05:41:38;10.00;99.90
55173;DHT22;41061;52.822;6.860;2023-04-01T05:44:05;10.00;99.90
55173;DHT22;41061;52.822;6.860;2023-04-01T05:46:31;10.00;99.90
55173;DHT22;41061;52.822;6.860;2023-04-01T05:48:57;10.10;99.90
55173;DHT22;41061;52.822;6.860;2023-04-01T05:51:23;10.10;99.90
55173;DHT22;41061;52.822;6.860;2023-04-01T05:53:49;10.00;99.90
55173;DHT22;41061;52.822;6.860;2023-04-01T05:56:15;10.10;99.90
55173;DHT22;41061;52.822;6.860;2023-04-01T05:58:40;10.10;99.90
55173;DHT22;41061;52.822;6.860;2023-04-01T06:01:09;10.10;99.90
55173;DHT22;41061;52.822;6.860;2023-04-01T06:03:35;10.10;99.90
55173;DHT22;41061;52.822;6.860;2023-04-01T06:06:01;10.10;99.90
55173;DHT22;41061;52.822;6.860;2023-04-01T06:08:28;10.10;99.90
55173;DHT22;41061;52.822;6.860;2023-04-01T06:11:12;10.10;99.90
55173;DHT22;41061;52.822;6.860;2023-04-01T06:19:21;10.10;99.90
55173;DHT22;41061;52.822;6.860;2023-04-01T06:21:55;10.10;99.90
55173;DHT22;41061;52.822;6.860;2023-04-01T06:30:49;10.10;99.90
55173;DHT22;41061;52.822;6.860;2023-04-01T06:36:21;10.20;99.90
55173;DHT22;41061;52.822;6.860;2023-04-01T06:52:30;10.20;99.90
55173;DHT22;41061;52.822;6.860;2023-04-01T06:55:24;10.20;99.90
55173;DHT22;41061;52.822;6.860;2023-04-01T06:57:57;10.20;99.90
55173;DHT22;41061;52.822;6.860;2023-04-01T07:00:34;10.20;99.90
55173;DHT22;41061;52.822;6.860;2023-04-01T07:03:36;10.20;99.90
55173;DHT22;41061;52.822;6.860;2023-04-01T07:06:06;10.30;99.90
55173;DHT22;41061;52.822;6.860;2023-04-01T07:08:38;10.30;99.90
55173;DHT22;41061;52.822;6.860;2023-04-01T07:11:27;10.30;99.90
55173;DHT22;41061;52.822;6.860;2023-04-01T07:19:31;10.30;99.90
55173;DHT22;41061;52.822;6.860;2023-04-01T07:22:03;10.40;99.90
55173;DHT22;41061;52.822;6.860;2023-04-01T07:24:36;10.40;99.90
55173;DHT22;41061;52.822;6.860;2023-04-01T07:27:07;10.40;99.90
55173;DHT22;41061;52.822;6.860;2023-04-01T07:29:34;10.40;99.90
55173;DHT22;41061;52.822;6.860;2023-04-01T07:34:42;10.40;99.90
55173;DHT22;41061;52.822;6.860;2023-04-01T07:37:23;10.30;99.90
55173;DHT22;41061;52.822;6.860;2023-04-01T07:51:27;10.40;99.90
55173;DHT22;41061;52.822;6.860;2023-04-01T07:54:08;10.40;99.90
55173;DHT22;41061;52.822;6.860;2023-04-01T07:56:40;10.40;99.90
55173;DHT22;41061;52.822;6.860;2023-04-01T08:01:54;10.40;99.90
55173;DHT22;41061;52.822;6.860;2023-04-01T08:06:53;10.40;99.90
55173;DHT22;41061;52.822;6.860;2023-04-01T08:15:03;10.40;99.90
55173;DHT22;41061;52.822;6.860;2023-04-01T08:20:47;10.50;99.90
55173;DHT22;41061;52.822;6.860;2023-04-01T08:29:00;10.60;99.90
55173;DHT22;41061;52.822;6.860;2023-04-01T08:34:04;10.70;99.90
55173;DHT22;41061;52.822;6.860;2023-04-01T08:36:39;10.70;99.90
55173;DHT22;41061;52.822;6.860;2023-04-01T08:39:10;10.80;99.90
55173;DHT22;41061;52.822;6.860;2023-04-01T08:42:01;10.80;99.90
55173;DHT22;41061;52.822;6.860;2023-04-01T08:45:05;10.80;99.90
55173;DHT22;41061;52.822;6.860;2023-04-01T08:50:26;11.00;99.90
55173;DHT22;41061;52.822;6.860;2023-04-01T08:52:58;11.10;99.90
55173;DHT22;41061;52.822;6.860;2023-04-01T09:00:57;11.30;99.90
55173;DHT22;41061;52.822;6.860;2023-04-01T09:03:41;11.50;99.90
55173;DHT22;41061;52.822;6.860;2023-04-01T09:20:39;11.70;99.90
55173;DHT22;41061;52.822;6.860;2023-04-01T09:37:18;11.90;99.90
55173;DHT22;41061;52.822;6.860;2023-04-01T09:39:54;12.00;99.90
55173;DHT22;41061;52.822;6.860;2023-04-01T09:48:01;12.30;99.90
55173;DHT22;41061;52.822;6.860;2023-04-01T09:59:07;12.60;99.90
55173;DHT22;41061;52.822;6.860;2023-04-01T10:10:47;12.70;99.90
55173;DHT22;41061;52.822;6.860;2023-04-01T10:22:02;12.50;99.90
55173;DHT22;41061;52.822;6.860;2023-04-01T10:27:16;12.40;99.90
55173;DHT22;41061;52.822;6.860;2023-04-01T10:41:11;12.20;99.90
55173;DHT22;41061;52.822;6.860;2023-04-01T10:55:48;12.10;99.90
55173;DHT22;41061;52.822;6.860;2023-04-01T11:18:04;12.00;99.90
55173;DHT22;41061;52.822;6.860;2023-04-01T11:23:54;11.50;99.90
55173;DHT22;41061;52.822;6.860;2023-04-01T11:26:15;11.40;99.90
55173;DHT22;41061;52.822;6.860;2023-04-01T11:29:11;11.30;99.90
55173;DHT22;41061;52.822;6.860;2023-04-01T11:34:50;11.20;99.90
55173;DHT22;41061;52.822;6.860;2023-04-01T11:37:45;11.10;99.90
55173;DHT22;41061;52.822;6.860;2023-04-01T11:45:50;11.00;99.90
55173;DHT22;41061;52.822;6.860;2023-04-01T11:57:05;10.80;99.90
55173;DHT22;41061;52.822;6.860;2023-04-01T12:07:22;10.70;99.90
55173;DHT22;41061;52.822;6.860;2023-04-01T12:16:15;10.70;99.90
55173;DHT22;41061;52.822;6.860;2023-04-01T12:19:04;10.70;99.90
55173;DHT22;41061;52.822;6.860;2023-04-01T12:21:55;10.70;99.90
55173;DHT22;41061;52.822;6.860;2023-04-01T12:49:18;10.90;99.90
55173;DHT22;41061;52.822;6.860;2023-04-01T13:03:22;10.70;99.90
55173;DHT22;41061;52.822;6.860;2023-04-01T13:20:02;10.50;99.90
55173;DHT22;41061;52.822;6.860;2023-04-01T13:25:43;10.50;99.90
55173;DHT22;41061;52.822;6.860;2023-04-01T13:27:53;10.50;99.90
55173;DHT22;41061;52.822;6.860;2023-04-01T13:30:37;10.50;99.90
55173;DHT22;41061;52.822;6.860;2023-04-01T13:38:54;10.40;99.90
55173;DHT22;41061;52.822;6.860;2023-04-01T13:44:31;10.30;99.90
55173;DHT22;41061;52.822;6.860;2023-04-01T14:03:32;9.90;99.90
55173;DHT22;41061;52.822;6.860;2023-04-01T14:08:47;9.90;99.90
55173;DHT22;41061;52.822;6.860;2023-04-01T14:11:22;9.80;99.90
55173;DHT22;41061;52.822;6.860;2023-04-01T14:16:35;9.90;99.90
55173;DHT22;41061;52.822;6.860;2023-04-01T14:30:42;9.90;99.90
55173;DHT22;41061;52.822;6.860;2023-04-01T14:34:05;9.90;99.90
55173;DHT22;41061;52.822;6.860;2023-04-01T14:36:43;9.80;99.90
55173;DHT22;41061;52.822;6.860;2023-04-01T14:42:03;9.80;99.90
55173;DHT22;41061;52.822;6.860;2023-04-01T14:49:47;9.70;99.90
55173;DHT22;41061;52.822;6.860;2023-04-01T14:52:23;9.70;99.90
55173;DHT22;41061;52.822;6.860;2023-04-01T14:54:50;9.70;99.90
55173;DHT22;41061;52.822;6.860;2023-04-01T14:57:28;9.70;99.90
55173;DHT22;41061;52.822;6.860;2023-04-01T15:00:01;9.70;99.90
55173;DHT22;41061;52.822;6.860;2023-04-01T15:05:55;9.70;99.90
55173;DHT22;41061;52.822;6.860;2023-04-01T15:16:47;9.80;99.90
55173;DHT22;41061;52.822;6.860;2023-04-01T15:27:47;9.80;99.90
55173;DHT22;41061;52.822;6.860;2023-04-01T15:30:29;9.70;99.90
55173;DHT22;41061;52.822;6.860;2023-04-01T15:33:03;9.70;99.90
55173;DHT22;41061;52.822;6.860;2023-04-01T15:41:22;9.70;99.90
55173;DHT22;41061;52.822;6.860;2023-04-01T15:43:50;9.70;99.90
55173;DHT22;41061;52.822;6.860;2023-04-01T15:52:03;9.50;99.90
55173;DHT22;41061;52.822;6.860;2023-04-01T15:57:29;9.40;99.90
55173;DHT22;41061;52.822;6.860;2023-04-01T16:02:49;9.30;99.90
55173;DHT22;41061;52.822;6.860;2023-04-01T16:21:46;9.10;99.90
55173;DHT22;41061;52.822;6.860;2023-04-01T16:40:58;8.80;99.90
55173;DHT22;41061;52.822;6.860;2023-04-01T16:46:31;8.60;99.90
55173;DHT22;41061;52.822;6.860;2023-04-01T16:49:13;8.50;99.90
55173;DHT22;41061;52.822;6.860;2023-04-01T16:55:03;8.40;99.90
55173;DHT22;41061;52.822;6.860;2023-04-01T16:57:27;8.40;99.90
55173;DHT22;41061;52.822;6.860;2023-04-01T17:00:16;8.50;99.90
55173;DHT22;41061;52.822;6.860;2023-04-01T17:02:52;8.50;99.90
55173;DHT22;41061;52.822;6.860;2023-04-01T17:05:20;8.50;99.90
55173;DHT22;41061;52.822;6.860;2023-04-01T17:14:20;8.40;99.90
55173;DHT22;41061;52.822;6.860;2023-04-01T17:19:25;8.40;99.90
55173;DHT22;41061;52.822;6.860;2023-04-01T17:30:30;8.30;99.90
55173;DHT22;41061;52.822;6.860;2023-04-01T17:35:59;8.20;99.90
55173;DHT22;41061;52.822;6.860;2023-04-01T17:38:54;8.20;99.90
55173;DHT22;41061;52.822;6.860;2023-04-01T17:51:33;8.00;99.90
55173;DHT22;41061;52.822;6.860;2023-04-01T17:57:53;7.90;99.90
55173;DHT22;41061;52.822;6.860;2023-04-01T18:08:59;7.80;99.90
55173;DHT22;41061;52.822;6.860;2023-04-01T18:11:34;7.70;99.90
55173;DHT22;41061;52.822;6.860;2023-04-01T18:22:58;7.70;99.90
55173;DHT22;41061;52.822;6.860;2023-04-01T18:30:40;7.60;99.90
55173;DHT22;41061;52.822;6.860;2023-04-01T18:36:44;7.50;99.90
55173;DHT22;41061;52.822;6.860;2023-04-01T18:42:27;7.50;99.90
55173;DHT22;41061;52.822;6.860;2023-04-01T18:45:23;7.60;99.90
55173;DHT22;41061;52.822;6.860;2023-04-01T18:47:54;7.50;99.90
55173;DHT22;41061;52.822;6.860;2023-04-01T18:50:22;7.50;99.90
55173;DHT22;41061;52.822;6.860;2023-04-01T18:53:08;7.50;99.90
55173;DHT22;41061;52.822;6.860;2023-04-01T18:55:42;7.40;99.90
55173;DHT22;41061;52.822;6.860;2023-04-01T18:58:25;7.40;99.90
55173;DHT22;41061;52.822;6.860;2023-04-01T19:03:55;7.20;99.90
55173;DHT22;41061;52.822;6.860;2023-04-01T19:06:27;7.20;99.90
55173;DHT22;41061;52.822;6.860;2023-04-01T19:08:54;7.10;99.90
55173;DHT22;41061;52.822;6.860;2023-04-01T19:11:49;7.10;99.90
55173;DHT22;41061;52.822;6.860;2023-04-01T19:19:34;7.20;99.90
55173;DHT22;41061;52.822;6.860;2023-04-01T19:28:02;7.10;99.90
55173;DHT22;41061;52.822;6.860;2023-04-01T19:30:53;7.10;99.90
55173;DHT22;41061;52.822;6.860;2023-04-01T19:35:55;7.10;99.90
55173;DHT22;41061;52.822;6.860;2023-04-01T19:38:41;7.00;99.90
55173;DHT22;41061;52.822;6.860;2023-04-01T19:46:32;7.00;99.90
55173;DHT22;41061;52.822;6.860;2023-04-01T19:52:00;7.00;99.90
55173;DHT22;41061;52.822;6.860;2023-04-01T19:54:39;7.00;99.90
55173;DHT22;41061;52.822;6.860;2023-04-01T19:57:12;7.00;99.90
55173;DHT22;41061;52.822;6.860;2023-04-01T20:16:09;7.00;99.90
55173;DHT22;41061;52.822;6.860;2023-04-01T20:24:05;6.90;99.90
55173;DHT22;41061;52.822;6.860;2023-04-01T20:26:36;6.90;99.90
55173;DHT22;41061;52.822;6.860;2023-04-01T20:40:37;6.80;99.90
55173;DHT22;41061;52.822;6.860;2023-04-01T20:46:35;6.80;99.90
55173;DHT22;41061;52.822;6.860;2023-04-01T20:49:01;6.70;99.90
55173;DHT22;41061;52.822;6.860;2023-04-01T20:51:38;6.70;99.90
55173;DHT22;41061;52.822;6.860;2023-04-01T20:57:06;6.70;99.90
55173;DHT22;41061;52.822;6.860;2023-04-01T20:59:41;6.70;99.90
55173;DHT22;41061;52.822;6.860;2023-04-01T21:03:08;6.60;99.90
55173;DHT22;41061;52.822;6.860;2023-04-01T21:10:53;6.60;99.90
55173;DHT22;41061;52.822;6.860;2023-04-01T21:21:50;6.50;99.90
55173;DHT22;41061;52.822;6.860;2023-04-01T21:25:24;6.50;99.90
55173;DHT22;41061;52.822;6.860;2023-04-01T21:31:18;6.40;99.90
55173;DHT22;41061;52.822;6.860;2023-04-01T21:36:18;6.40;99.90
55173;DHT22;41061;52.822;6.860;2023-04-01T21:42:07;6.40;99.90
55173;DHT22;41061;52.822;6.860;2023-04-01T21:45:27;6.30;99.90
55173;DHT22;41061;52.822;6.860;2023-04-01T21:50:27;6.30;99.90
55173;DHT22;41061;52.822;6.860;2023-04-01T22:04:30;6.20;99.90
55173;DHT22;41061;52.822;6.860;2023-04-01T22:10:20;6.10;99.90
55173;DHT22;41061;52.822;6.860;2023-04-01T22:12:44;6.10;99.90
55173;DHT22;41061;52.822;6.860;2023-04-01T22:15:29;6.10;99.90
55173;DHT22;41061;52.822;6.860;2023-04-01T22:20:36;6.10;99.90
55173;DHT22;41061;52.822;6.860;2023-04-01T22:23:18;6.20;99.90
55173;DHT22;41061;52.822;6.860;2023-04-01T22:28:58;6.20;99.90
55173;DHT22;41061;52.822;6.860;2023-04-01T22:31:53;6.00;99.90
55173;DHT22;41061;52.822;6.860;2023-04-01T22:38:01;6.00;99.90
55173;DHT22;41061;52.822;6.860;2023-04-01T22:40:34;6.00;99.90
55173;DHT22;41061;52.822;6.860;2023-04-01T22:43:09;6.00;99.90
55173;DHT22;41061;52.822;6.860;2023-04-01T22:48:37;6.00;99.90
55173;DHT22;41061;52.822;6.860;2023-04-01T22:51:09;5.90;99.90
55173;DHT22;41061;52.822;6.860;2023-04-01T22:56:56;5.90;99.90
55173;DHT22;41061;52.822;6.860;2023-04-01T22:59:31;5.80;99.90
55173;DHT22;41061;52.822;6.860;2023-04-01T23:04:39;5.80;99.90
55173;DHT22;41061;52.822;6.860;2023-04-01T23:09:56;5.70;99.90
55173;DHT22;41061;52.822;6.860;2023-04-01T23:12:25;5.70;99.90
55173;DHT22;41061;52.822;6.860;2023-04-01T23:14:58;5.70;99.90
55173;DHT22;41061;52.822;6.860;2023-04-01T23:17:51;5.60;99.90
55173;DHT22;41061;52.822;6.860;2023-04-01T23:26:30;5.50;99.90
55173;DHT22;41061;52.822;6.860;2023-04-01T23:28:58;5.50;99.90
55173;DHT22;41061;52.822;6.860;2023-04-01T23:31:26;5.40;99.90
55173;DHT22;41061;52.822;6.860;2023-04-01T23:33:56;5.40;99.90
55173;DHT22;41061;52.822;6.860;2023-04-01T23:36:24;5.40;99.90
55173;DHT22;41061;52.822;6.860;2023-04-01T23:38:51;5.30;99.90
55173;DHT22;41061;52.822;6.860;2023-04-01T23:41:23;5.30;99.90
55173;DHT22;41061;52.822;6.860;2023-04-01T23:44:07;5.20;99.90
55173;DHT22;41061;52.822;6.860;2023-04-01T23:46:34;5.20;99.90
55173;DHT22;41061;52.822;6.860;2023-04-01T23:49:01;5.20;99.90
55173;DHT22;41061;52.822;6.860;2023-04-01T23:51:39;5.10;99.90
55173;DHT22;41061;52.822;6.860;2023-04-01T23:54:19;5.10;99.90
55173;DHT22;41061;52.822;6.860;2023-04-01T23:56:54;5.10;99.90
55173;DHT22;41061;52.822;6.860;2023-04-01T23:59:32;5.10;99.90
